Time;durP1;ratioP1;P1;durP2;ratioP2;P2;SDS_P1;SDS_P2;PMS_P1;PMS_P2;Temp;Humidity;BMP_temperature;BMP_pressure;BME280_temperature;BME280_humidity;BME280_pressure;Samples;Min_cycle;Max_cycle;Signal;HPM_P1;HPM_P2
2022/10/12 00:02:23;;;;;;;10.27;5.93;;;;;;;9.58;55.58;102481.28;4964973;28;119215;-69
2022/10/12 00:04:50;;;;;;;10.77;5.97;;;;;;;9.58;55.70;102486.56;4949290;28;119666;-69
2022/10/12 00:07:17;;;;;;;11.88;5.35;;;;;;;9.57;55.55;102485.72;4946749;28;124598;-69
2022/10/12 00:09:44;;;;;;;8.85;5.68;;;;;;;9.55;55.55;102475.16;4948193;28;123340;-69
2022/10/12 00:12:11;;;;;;;11.20;5.55;;;;;;;9.53;55.47;102484.88;4966304;28;119628;-69
2022/10/12 00:14:38;;;;;;;11.13;5.65;;;;;;;9.53;55.67;102484.88;4948445;28;118059;-68
2022/10/12 00:17:05;;;;;;;11.30;5.60;;;;;;;9.52;56.06;102488.41;4966017;28;123599;-69
2022/10/12 00:19:32;;;;;;;13.15;5.75;;;;;;;9.51;55.69;102486.66;4948376;28;123554;-69
2022/10/12 00:21:59;;;;;;;15.05;5.68;;;;;;;9.53;55.75;102479.59;4966793;28;119287;-69
2022/10/12 00:24:26;;;;;;;16.42;6.13;;;;;;;9.53;55.90;102479.59;4965717;28;118482;-69
2022/10/12 00:26:53;;;;;;;17.45;6.40;;;;;;;9.54;56.23;102480.44;4965242;28;123817;-69
2022/10/12 00:29:20;;;;;;;11.55;5.38;;;;;;;9.55;55.95;102487.50;4948120;28;123168;-69
2022/10/12 00:31:47;;;;;;;17.25;6.10;;;;;;;9.55;55.86;102477.78;4948177;28;119122;-69
2022/10/12 00:34:14;;;;;;;17.50;6.22;;;;;;;9.54;56.07;102481.31;4962021;28;119464;-69
2022/10/12 00:36:42;;;;;;;13.25;5.90;;;;;;;9.57;56.03;102474.22;4966053;28;124026;-69
2022/10/12 00:39:10;;;;;;;11.25;5.57;;;;;;;9.57;56.21;102468.94;4965579;28;123891;-69
2022/10/12 00:41:41;;;;;;;10.10;5.00;;;;;;;9.57;56.25;102463.66;4963312;28;120444;-71
2022/10/12 00:44:32;;;;;;;8.30;4.57;;;;;;;9.58;56.07;102465.41;4964382;28;119736;-69
2022/10/12 00:47:04;;;;;;;7.88;4.35;;;;;;;9.57;56.33;102463.66;4966448;28;123931;-70
2022/10/12 00:49:32;;;;;;;8.85;4.43;;;;;;;9.57;55.92;102468.94;4945551;28;124488;-69
2022/10/12 00:52:05;;;;;;;13.15;4.80;;;;;;;9.56;56.19;102478.66;4966311;28;119279;-69
2022/10/12 00:54:37;;;;;;;9.82;4.40;;;;;;;9.55;56.24;102480.44;4962629;28;118229;-69
2022/10/12 00:57:18;;;;;;;9.45;4.28;;;;;;;9.54;55.85;102481.31;4965832;28;124283;-69
2022/10/12 00:59:55;;;;;;;10.52;4.78;;;;;;;9.54;56.05;102486.59;4950625;28;124305;-69
2022/10/12 01:02:24;;;;;;;11.73;5.20;;;;;;;9.52;56.04;102480.47;4948910;28;120209;-69
2022/10/12 01:04:52;;;;;;;22.42;4.78;;;;;;;9.50;56.21;102479.63;4965857;28;119246;-69
2022/10/12 01:07:19;;;;;;;11.70;5.25;;;;;;;9.50;56.20;102484.03;4963769;28;124670;-69
2022/10/12 01:09:47;;;;;;;11.77;5.78;;;;;;;9.48;55.78;102469.97;4950966;28;122695;-69
2022/10/12 01:12:15;;;;;;;13.90;5.45;;;;;;;9.47;55.96;102479.66;4969151;28;119661;-69
2022/10/12 01:14:42;;;;;;;10.73;5.40;;;;;;;9.46;56.15;102480.56;4969089;28;119332;-69
2022/10/12 01:17:31;;;;;;;11.00;5.68;;;;;;;9.43;55.98;102475.31;4968704;28;123802;-69
2022/10/12 01:20:45;;;;;;;11.48;6.55;;;;;;;9.42;55.74;102470.94;4967070;28;123824;-69
2022/10/12 01:23:15;;;;;;;14.40;6.82;;;;;;;9.41;56.00;102463.88;4939423;28;119816;-69
2022/10/12 01:26:10;;;;;;;14.57;6.85;;;;;;;9.39;56.17;102465.66;4950837;28;118942;-69
2022/10/12 01:29:11;;;;;;;12.40;6.22;;;;;;;9.38;55.93;102463.94;4950870;28;124514;-69
2022/10/12 01:31:51;;;;;;;12.15;6.18;;;;;;;9.37;56.23;102462.19;4951479;28;123222;-69
2022/10/12 01:34:38;;;;;;;12.65;6.75;;;;;;;9.38;55.99;102458.66;4967181;28;120302;-69
2022/10/12 01:37:22;;;;;;;14.35;6.75;;;;;;;9.37;56.47;102451.59;4967491;28;120195;-69
2022/10/12 01:39:53;;;;;;;16.40;6.90;;;;;;;9.39;56.29;102454.22;4966694;28;124212;-69
2022/10/12 01:42:27;;;;;;;13.43;6.47;;;;;;;9.39;56.38;102439.22;4965693;28;124266;-69
2022/10/12 01:45:12;;;;;;;14.38;6.70;;;;;;;9.42;56.30;102439.19;4950889;28;117768;-69
2022/10/12 01:47:41;;;;;;;15.70;7.13;;;;;;;9.43;56.42;102438.28;4951137;28;118773;-69
2022/10/12 01:50:13;;;;;;;14.77;6.80;;;;;;;9.45;56.36;102432.97;4968287;28;124248;-69
2022/10/12 01:52:55;;;;;;;10.35;6.47;;;;;;;9.45;56.48;102436.47;4950823;28;122978;-69
2022/10/12 01:55:29;;;;;;;13.73;6.50;;;;;;;9.48;56.39;102428.50;4950150;28;119792;-69
2022/10/12 01:58:14;;;;;;;12.50;6.65;;;;;;;9.49;56.60;102425.00;4965255;28;120562;-70
2022/10/12 02:00:52;;;;;;;14.67;7.20;;;;;;;9.50;56.54;102426.72;4967577;28;123806;-69
2022/10/12 02:03:29;;;;;;;15.75;6.90;;;;;;;9.52;56.60;102424.06;4959308;28;124650;-70
2022/10/12 02:06:14;;;;;;;15.88;7.93;;;;;;;9.51;56.46;102423.19;4967055;28;120706;-69
2022/10/12 02:09:13;;;;;;;12.95;7.53;;;;;;;9.50;56.49;102416.13;4966300;28;119431;-69
2022/10/12 02:11:43;;;;;;;15.85;7.65;;;;;;;9.51;56.43;102417.91;4966052;28;123809;-68
2022/10/12 02:14:20;;;;;;;17.17;7.78;;;;;;;9.53;56.66;102420.50;4968260;28;123596;-69
2022/10/12 02:16:52;;;;;;;17.88;7.88;;;;;;;9.52;56.84;102409.06;4940343;28;118732;-69
2022/10/12 02:19:25;;;;;;;17.70;7.20;;;;;;;9.53;56.63;102416.09;4946911;28;119425;-69
2022/10/12 02:21:59;;;;;;;17.40;7.38;;;;;;;9.53;56.62;102421.41;4963545;28;124316;-69
2022/10/12 02:24:29;;;;;;;14.18;6.65;;;;;;;9.53;56.58;102416.09;4949461;28;123840;-69
2022/10/12 02:26:58;;;;;;;15.45;6.72;;;;;;;9.53;56.72;102410.81;4966337;28;120965;-69
2022/10/12 02:29:31;;;;;;;14.00;6.43;;;;;;;9.52;56.71;102409.06;4968451;28;120208;-69
2022/10/12 02:32:07;;;;;;;10.95;6.57;;;;;;;9.50;56.63;102415.28;4947835;28;123103;-69
2022/10/12 02:34:47;;;;;;;10.80;5.53;;;;;;;9.49;57.07;102408.22;4948911;28;123672;-69
2022/10/12 02:37:40;;;;;;;9.98;4.93;;;;;;;9.47;56.71;102421.47;4965315;28;120147;-69
2022/10/12 02:40:15;;;;;;;12.32;5.32;;;;;;;9.46;56.60;102419.72;4967341;28;119617;-69
2022/10/12 02:42:49;;;;;;;12.18;5.38;;;;;;;9.45;56.93;102407.41;4950310;28;123799;-69
2022/10/12 02:45:40;;;;;;;9.82;5.55;;;;;;;9.43;56.78;102403.91;4949777;28;123153;-69
2022/10/12 02:48:10;;;;;;;11.73;5.50;;;;;;;9.41;56.66;102405.69;4967999;28;119613;-69
2022/10/12 02:50:38;;;;;;;9.73;5.63;;;;;;;9.40;56.52;102401.31;4967492;28;117902;-69
2022/10/12 02:53:06;;;;;;;10.30;5.55;;;;;;;9.37;56.35;102401.34;4950160;28;123954;-69
2022/10/12 02:55:37;;;;;;;9.57;5.47;;;;;;;9.36;56.93;102402.25;4967256;28;124453;-69
2022/10/12 02:58:04;;;;;;;10.05;5.50;;;;;;;9.35;56.30;102400.50;4966268;28;119394;-69
2022/10/12 03:00:33;;;;;;;11.05;5.30;;;;;;;9.34;56.36;102404.03;4968028;28;119308;-69
2022/10/12 03:03:00;;;;;;;11.90;5.60;;;;;;;9.30;56.20;102397.91;4965367;28;124379;-69
2022/10/12 03:05:27;;;;;;;11.55;5.05;;;;;;;9.29;56.46;102397.97;4932014;28;123401;-69
2022/10/12 03:07:54;;;;;;;12.07;5.20;;;;;;;9.26;56.45;102398.00;4967509;28;119422;-70
2022/10/12 03:10:21;;;;;;;8.80;5.18;;;;;;;9.24;56.36;102397.16;4967149;28;119688;-69
2022/10/12 03:12:48;;;;;;;11.55;5.18;;;;;;;9.23;56.31;102395.38;4967268;28;123338;-69
2022/10/12 03:15:16;;;;;;;11.40;5.53;;;;;;;9.20;56.46;102390.16;4965543;28;123945;-69
2022/10/12 03:17:43;;;;;;;13.98;5.50;;;;;;;9.17;56.59;102391.06;4949570;28;121075;-69
2022/10/12 03:20:10;;;;;;;10.10;5.03;;;;;;;9.15;56.50;102388.47;4967245;28;120453;-69
2022/10/12 03:22:37;;;;;;;11.48;5.05;;;;;;;9.12;56.22;102387.63;4949775;28;124737;-69
2022/10/12 03:25:05;;;;;;;9.23;4.90;;;;;;;9.10;56.62;102385.00;4967123;28;123671;-69
2022/10/12 03:27:32;;;;;;;8.23;4.70;;;;;;;9.09;56.33;102388.53;4966897;28;118276;-68
2022/10/12 03:29:59;;;;;;;9.48;4.65;;;;;;;9.07;56.60;102381.53;4966285;28;118591;-70
2022/10/12 03:32:26;;;;;;;8.60;5.00;;;;;;;9.04;56.66;102379.81;4964626;28;123547;-70
2022/10/12 03:34:53;;;;;;;7.78;4.72;;;;;;;9.04;56.63;102387.75;4968078;28;125678;-70
2022/10/12 03:37:20;;;;;;;8.27;4.57;;;;;;;9.00;56.35;102393.94;4964957;28;120128;-68
2022/10/12 03:39:47;;;;;;;8.38;4.30;;;;;;;8.99;56.29;102392.22;4967552;28;119012;-69
2022/10/12 03:42:14;;;;;;;10.30;4.25;;;;;;;8.98;56.72;102394.88;4948294;28;122741;-69
2022/10/12 03:44:41;;;;;;;10.23;4.53;;;;;;;8.94;56.70;102383.47;4966696;28;123677;-69
2022/10/12 03:47:08;;;;;;;7.57;4.32;;;;;;;8.93;56.84;102387.00;4965665;28;118876;-69
2022/10/12 03:49:35;;;;;;;8.13;4.32;;;;;;;8.92;56.67;102385.25;4946393;28;119313;-69
2022/10/12 03:52:03;;;;;;;10.52;4.60;;;;;;;8.91;56.86;102383.50;4949338;28;124219;-69
2022/10/12 03:54:30;;;;;;;7.32;4.50;;;;;;;8.91;57.02;102372.91;4950360;28;123128;-69
2022/10/12 03:56:57;;;;;;;7.93;3.85;;;;;;;8.90;56.95;102382.63;4948596;28;119271;-68
2022/10/12 03:59:24;;;;;;;9.23;4.00;;;;;;;8.88;56.68;102372.97;4966339;28;119306;-69
2022/10/12 04:01:51;;;;;;;8.95;4.22;;;;;;;8.87;56.92;102381.78;4952811;28;124225;-69
2022/10/12 04:04:18;;;;;;;7.10;4.05;;;;;;;8.85;56.63;102378.28;4974731;28;125305;-69
2022/10/12 04:06:45;;;;;;;11.25;4.70;;;;;;;8.82;56.68;102373.06;4971167;28;121799;-68
2022/10/12 04:09:12;;;;;;;9.15;4.00;;;;;;;8.80;56.65;102375.72;4949631;28;120403;-68
2022/10/12 04:11:39;;;;;;;10.57;4.25;;;;;;;8.76;56.56;102368.75;4949189;28;124101;-69
2022/10/12 04:14:06;;;;;;;7.88;4.20;;;;;;;8.73;56.63;102374.91;4966401;28;124528;-69
2022/10/12 04:16:33;;;;;;;8.52;3.97;;;;;;;8.72;56.56;102372.28;4966589;28;120346;-68
2022/10/12 04:19:00;;;;;;;10.50;3.58;;;;;;;8.70;56.88;102364.41;4964051;28;118726;-68
2022/10/12 04:21:30;;;;;;;9.27;3.92;;;;;;;8.68;56.83;102366.19;4948898;28;124336;-69
2022/10/12 04:23:57;;;;;;;10.15;3.75;;;;;;;8.66;56.47;102367.94;4949564;28;124305;-69
2022/10/12 04:26:24;;;;;;;8.90;3.78;;;;;;;8.65;56.62;102366.22;4946626;28;118323;-69
2022/10/12 04:28:51;;;;;;;12.98;3.67;;;;;;;8.63;56.66;102362.72;4966337;28;118786;-69
2022/10/12 04:31:18;;;;;;;7.18;3.85;;;;;;;8.60;56.60;102368.03;4966361;28;123852;-69
2022/10/12 04:33:45;;;;;;;12.18;3.95;;;;;;;8.57;56.42;102368.09;4967004;28;122826;-69
2022/10/12 04:36:12;;;;;;;9.00;4.20;;;;;;;8.54;56.72;102357.56;4967176;28;118371;-68
2022/10/12 04:38:39;;;;;;;9.93;4.13;;;;;;;8.54;56.69;102357.56;4966740;28;119769;-69
2022/10/12 04:41:06;;;;;;;12.57;4.25;;;;;;;8.51;56.72;102357.59;4966477;28;123203;-68
2022/10/12 04:43:33;;;;;;;9.25;3.72;;;;;;;8.49;56.73;102359.38;4948053;28;123650;-69
2022/10/12 04:46:00;;;;;;;9.88;3.88;;;;;;;8.44;56.68;102356.81;4945658;28;118315;-68
2022/10/12 04:48:27;;;;;;;9.45;3.58;;;;;;;8.41;56.60;102367.34;4966704;28;119124;-69
2022/10/12 04:50:54;;;;;;;8.32;3.42;;;;;;;8.37;56.62;102366.50;4965771;28;123800;-68
2022/10/12 04:53:21;;;;;;;4.78;3.58;;;;;;;8.35;56.66;102378.84;4947430;28;122815;-69
2022/10/12 04:55:48;;;;;;;7.05;3.63;;;;;;;8.33;56.52;102374.50;4963963;28;120693;-69
2022/10/12 04:58:16;;;;;;;6.70;3.50;;;;;;;8.30;56.48;102374.50;4965773;28;119907;-69
2022/10/12 05:00:43;;;;;;;6.30;3.28;;;;;;;8.27;56.61;102375.44;4965847;28;124790;-69
2022/10/12 05:03:10;;;;;;;7.70;3.72;;;;;;;8.23;56.71;102368.44;4965818;28;123885;-69
2022/10/12 05:05:37;;;;;;;10.98;4.05;;;;;;;8.21;56.46;102370.19;4965345;28;119231;-69
2022/10/12 05:08:04;;;;;;;7.55;3.50;;;;;;;8.18;56.61;102371.13;4965720;28;119468;-69
2022/10/12 05:10:32;;;;;;;7.38;3.72;;;;;;;8.16;56.35;102366.75;4948229;28;123056;-69
2022/10/12 05:12:59;;;;;;;7.93;3.83;;;;;;;8.15;56.48;102365.00;4966061;28;124239;-70
2022/10/12 05:15:26;;;;;;;5.57;3.63;;;;;;;8.12;56.42;102365.03;4948407;28;118641;-70
2022/10/12 05:17:53;;;;;;;10.52;4.18;;;;;;;8.12;56.56;102365.03;4965983;28;120105;-70
2022/10/12 05:20:20;;;;;;;8.65;3.80;;;;;;;8.09;56.88;102365.06;4964767;28;124513;-69
2022/10/12 05:22:48;;;;;;;7.55;3.72;;;;;;;8.07;56.73;102356.28;4950473;28;123797;-69
2022/10/12 05:25:15;;;;;;;7.35;4.28;;;;;;;8.06;56.68;102365.09;4962442;28;119461;-69
2022/10/12 05:27:42;;;;;;;7.47;3.65;;;;;;;8.05;56.83;102358.06;4966056;28;119370;-69
2022/10/12 05:30:10;;;;;;;7.13;4.10;;;;;;;8.04;56.52;102351.03;4965774;28;123824;-68
2022/10/12 05:32:37;;;;;;;8.85;3.72;;;;;;;8.02;56.83;102355.47;4948141;28;124034;-69
2022/10/12 05:35:05;;;;;;;7.85;4.00;;;;;;;7.99;56.67;102354.59;4965643;28;119105;-68
2022/10/12 05:37:33;;;;;;;10.70;4.07;;;;;;;7.97;56.91;102361.66;4956474;28;118963;-68
2022/10/12 05:40:00;;;;;;;7.80;4.05;;;;;;;7.97;56.96;102360.78;4965212;28;124137;-68
2022/10/12 05:42:27;;;;;;;7.07;4.10;;;;;;;7.96;56.81;102359.91;4964585;28;124085;-69
2022/10/12 05:44:54;;;;;;;13.30;4.43;;;;;;;7.95;56.80;102358.16;4947916;28;120388;-68
2022/10/12 05:47:21;;;;;;;9.45;3.85;;;;;;;7.94;57.12;102361.69;4965455;28;120198;-68
2022/10/12 05:49:48;;;;;;;10.93;3.90;;;;;;;7.93;57.19;102359.94;4947595;28;124348;-69
2022/10/12 05:52:15;;;;;;;11.73;3.97;;;;;;;7.91;57.01;102353.81;4960901;28;123892;-69
2022/10/12 05:54:42;;;;;;;6.75;3.70;;;;;;;7.90;57.06;102365.25;4968508;28;120238;-70
2022/10/12 05:57:09;;;;;;;10.82;3.80;;;;;;;7.89;57.03;102363.50;4964957;28;118963;-68
2022/10/12 05:59:36;;;;;;;15.18;4.50;;;;;;;7.89;57.12;102352.97;4963334;28;124022;-69
2022/10/12 06:02:03;;;;;;;11.65;3.95;;;;;;;7.90;57.09;102365.25;4967306;28;124756;-69
2022/10/12 06:04:30;;;;;;;11.30;4.00;;;;;;;7.90;57.50;102365.25;4954262;28;119527;-69
2022/10/12 06:06:57;;;;;;;8.93;3.88;;;;;;;7.91;57.47;102355.56;4968185;28;118785;-70
2022/10/12 06:09:24;;;;;;;9.15;4.07;;;;;;;7.91;57.33;102361.72;4968187;28;125003;-71
2022/10/12 06:11:51;;;;;;;9.05;3.63;;;;;;;7.92;57.15;102354.69;4969187;28;123905;-70
2022/10/12 06:14:18;;;;;;;10.15;3.75;;;;;;;7.94;57.19;102356.41;4969084;28;120220;-70
2022/10/12 06:16:45;;;;;;;12.13;3.75;;;;;;;7.95;57.39;102352.88;4937972;28;118321;-70
2022/10/12 06:19:14;;;;;;;9.00;3.67;;;;;;;7.98;57.55;102358.13;4969288;28;124396;-70
2022/10/12 06:21:41;;;;;;;9.00;3.30;;;;;;;8.01;57.28;102345.81;4950858;28;123514;-69
2022/10/12 06:24:08;;;;;;;8.20;3.50;;;;;;;8.04;57.42;102345.75;4968591;28;118499;-70
2022/10/12 06:26:35;;;;;;;7.53;3.70;;;;;;;8.07;57.77;102349.25;4972046;28;119507;-71
2022/10/12 06:29:02;;;;;;;10.32;4.03;;;;;;;8.10;58.02;102357.13;4968842;28;124477;-70
2022/10/12 06:31:30;;;;;;;9.95;4.20;;;;;;;8.16;58.01;102361.47;4967788;28;123747;-70
2022/10/12 06:33:57;;;;;;;10.00;4.30;;;;;;;8.21;57.91;102354.38;4945349;28;119804;-71
2022/10/12 06:36:24;;;;;;;8.55;4.13;;;;;;;8.27;58.01;102345.50;4962504;28;120081;-70
2022/10/12 06:38:52;;;;;;;11.15;4.30;;;;;;;8.32;58.03;102346.34;4967637;28;124328;-70
2022/10/12 06:41:19;;;;;;;11.68;4.68;;;;;;;8.37;57.96;102340.09;4968913;28;123611;-70
2022/10/12 06:43:46;;;;;;;13.50;5.68;;;;;;;8.45;58.36;102352.38;4948520;28;119063;-71
2022/10/12 06:46:13;;;;;;;11.77;5.07;;;;;;;8.52;58.33;102348.78;4969074;28;119441;-70
2022/10/12 06:48:40;;;;;;;13.30;5.15;;;;;;;8.60;58.57;102346.91;4968179;28;123800;-70
2022/10/12 06:51:07;;;;;;;15.43;5.43;;;;;;;8.68;58.58;102350.34;4969241;28;123728;-70
2022/10/12 06:53:35;;;;;;;12.13;5.25;;;;;;;8.74;58.40;102355.53;4966502;28;119038;-70
2022/10/12 06:56:06;;;;;;;11.00;4.60;;;;;;;8.81;58.54;102350.16;4968274;28;119364;-70
2022/10/12 06:58:34;;;;;;;11.75;5.15;;;;;;;8.86;58.73;102343.06;4964108;28;123937;-70
2022/10/12 07:01:06;;;;;;;9.13;5.28;;;;;;;8.92;58.75;102348.25;4956481;28;123918;-70
2022/10/12 07:03:33;;;;;;;11.88;5.82;;;;;;;9.00;58.45;102346.38;4949896;28;118572;-70
2022/10/12 07:06:12;;;;;;;14.55;6.35;;;;;;;9.05;58.74;102344.53;4947609;28;118841;-70
2022/10/12 07:08:40;;;;;;;11.13;6.50;;;;;;;9.13;58.60;102347.94;4967856;28;124007;-70
2022/10/12 07:11:10;;;;;;;13.13;6.78;;;;;;;9.19;58.71;102351.41;4936466;28;123147;-69
2022/10/12 07:13:37;;;;;;;15.68;7.30;;;;;;;9.27;59.21;102349.53;4951044;28;117322;-70
2022/10/12 07:16:05;;;;;;;13.82;7.20;;;;;;;9.34;58.98;102345.88;4967963;28;119283;-70
2022/10/12 07:18:32;;;;;;;16.17;7.75;;;;;;;9.43;59.35;102351.00;4950675;28;123567;-69
2022/10/12 07:21:01;;;;;;;13.85;7.20;;;;;;;9.53;59.39;102344.69;4954417;28;124667;-69
2022/10/12 07:23:32;;;;;;;15.75;7.82;;;;;;;9.63;59.48;102347.19;4967585;28;120395;-70
2022/10/12 07:26:00;;;;;;;15.05;7.20;;;;;;;9.74;59.73;102346.09;4967752;28;120008;-70
2022/10/12 07:28:27;;;;;;;17.13;8.23;;;;;;;9.84;59.65;102346.81;4953536;28;124772;-70
2022/10/12 07:31:00;;;;;;;16.30;7.82;;;;;;;9.93;59.94;102336.06;4939156;28;124286;-70
2022/10/12 07:33:30;;;;;;;13.43;7.32;;;;;;;10.04;59.66;102338.50;4966112;28;119507;-69
2022/10/12 07:35:57;;;;;;;17.75;8.18;;;;;;;10.15;59.42;102335.63;4950324;28;118959;-69
2022/10/12 07:38:43;;;;;;;18.17;8.88;;;;;;;10.24;59.73;102340.75;4965432;28;124179;-70
2022/10/12 07:41:11;;;;;;;18.88;8.70;;;;;;;10.33;59.64;102330.03;4957926;28;124207;-70
2022/10/12 07:43:38;;;;;;;18.40;8.73;;;;;;;10.41;59.42;102331.66;4947287;28;119273;-69
2022/10/12 07:46:06;;;;;;;18.15;8.60;;;;;;;10.50;59.44;102336.75;4950405;28;120297;-69
2022/10/12 07:48:33;;;;;;;19.88;9.23;;;;;;;10.57;59.39;102327.78;4964541;28;126149;-70
2022/10/12 07:51:09;;;;;;;16.25;9.35;;;;;;;10.65;59.49;102331.13;4950044;28;122851;-70
2022/10/12 07:53:38;;;;;;;;;;;;;;;10.70;59.28;102329.25;4954547;28;119004;-69
2022/10/12 07:56:13;;;;;;;16.58;8.70;;;;;;;10.81;59.13;102331.69;4940943;28;118121;-69
2022/10/12 07:58:42;;;;;;;20.23;9.10;;;;;;;10.90;59.43;102333.25;4950821;28;124285;-70
2022/10/12 08:01:09;;;;;;;18.20;9.77;;;;;;;10.98;59.26;102333.97;4967602;28;124105;-70
2022/10/12 08:03:36;;;;;;;24.02;10.45;;;;;;;11.07;59.26;102338.16;4937623;28;118387;-70
2022/10/12 08:06:12;;;;;;;23.35;10.73;;;;;;;11.16;59.54;102331.78;4949506;28;118014;-70
2022/10/12 08:08:39;;;;;;;20.17;10.15;;;;;;;11.23;59.35;102341.34;4966640;28;124006;-70
2022/10/12 08:11:07;;;;;;;20.45;10.02;;;;;;;11.30;59.42;102350.88;4966953;28;124650;-70
2022/10/12 08:13:35;;;;;;;24.65;11.98;;;;;;;11.37;59.64;102347.16;4966449;28;120953;-70
2022/10/12 08:16:04;;;;;;;19.25;11.70;;;;;;;11.42;59.52;102345.28;4947330;28;119855;-70
2022/10/12 08:18:31;;;;;;;23.02;11.27;;;;;;;11.49;59.78;102346.03;4954919;28;124301;-70
2022/10/12 08:20:58;;;;;;;25.02;11.73;;;;;;;11.55;59.55;102345.00;4966887;28;123680;-69
2022/10/12 08:23:25;;;;;;;17.35;10.93;;;;;;;11.62;59.56;102346.56;4958072;28;119430;-70
2022/10/12 08:25:55;;;;;;;24.85;13.18;;;;;;;11.68;59.63;102341.13;4954383;28;118362;-70
2022/10/12 08:28:23;;;;;;;29.10;13.52;;;;;;;11.75;59.60;102340.03;4946412;28;123055;-70
2022/10/12 08:30:50;;;;;;;25.02;13.18;;;;;;;11.81;59.48;102347.84;4941162;28;124588;-70
2022/10/12 08:33:18;;;;;;;24.17;13.25;;;;;;;11.87;59.53;102342.38;4967371;28;119470;-70
2022/10/12 08:35:46;;;;;;;21.50;14.48;;;;;;;11.93;59.48;102345.81;4958660;28;120503;-69
2022/10/12 08:38:14;;;;;;;28.90;14.73;;;;;;;11.99;59.46;102346.50;4947053;28;124738;-69
2022/10/12 08:40:51;;;;;;;25.15;14.38;;;;;;;12.04;59.43;102338.44;4960876;28;123902;-70
2022/10/12 08:43:40;;;;;;;27.23;14.57;;;;;;;12.10;59.31;102346.22;4961438;28;119846;-70
2022/10/12 08:46:08;;;;;;;26.55;15.52;;;;;;;12.18;59.42;102341.56;4948836;28;118423;-70
2022/10/12 08:48:48;;;;;;;27.70;14.88;;;;;;;12.25;59.45;102337.84;4966716;28;123674;-69
2022/10/12 08:51:21;;;;;;;28.17;15.82;;;;;;;12.34;59.27;102342.03;4961764;28;123771;-70
2022/10/12 08:54:01;;;;;;;26.40;15.52;;;;;;;12.43;59.37;102340.88;4959518;28;119378;-70
2022/10/12 08:56:28;;;;;;;29.00;16.23;;;;;;;12.52;59.31;102335.28;4963700;28;119901;-70
2022/10/12 08:58:56;;;;;;;29.63;15.63;;;;;;;12.63;59.22;102337.66;4947835;28;123482;-69
2022/10/12 09:01:29;;;;;;;31.88;16.42;;;;;;;12.73;59.04;102338.22;4948609;28;123092;-70
2022/10/12 09:04:36;;;;;;;32.22;15.98;;;;;;;12.81;59.00;102330.91;4939522;28;119714;-70
2022/10/12 09:07:19;;;;;;;27.52;15.60;;;;;;;12.92;58.90;102338.53;4960917;28;121107;-70
2022/10/12 09:10:13;;;;;;;31.27;16.17;;;;;;;12.98;58.76;102339.25;4966872;28;124656;-70
2022/10/12 09:13:13;;;;;;;27.73;15.50;;;;;;;13.07;58.48;102347.84;4963487;28;124216;-70
2022/10/12 09:16:01;;;;;;;30.65;16.33;;;;;;;13.16;58.84;102347.56;4921604;28;119972;-70
2022/10/12 09:18:44;;;;;;;24.25;15.38;;;;;;;13.26;58.85;102338.38;4935412;28;119019;-70
2022/10/12 09:21:20;;;;;;;24.30;15.68;;;;;;;13.38;58.43;102332.66;4966582;28;124061;-70
2022/10/12 09:23:48;;;;;;;26.58;14.82;;;;;;;13.46;58.39;102337.72;4957986;28;125596;-70
2022/10/12 09:26:24;;;;;;;22.85;14.65;;;;;;;13.55;58.45;102333.91;4944937;28;120080;-69
2022/10/12 09:28:57;;;;;;;27.23;14.70;;;;;;;13.67;58.33;102329.94;4947661;28;117438;-70
2022/10/12 09:31:55;;;;;;;28.35;14.75;;;;;;;13.77;58.43;102329.59;4948637;28;122045;-70
2022/10/12 09:34:23;;;;;;;29.63;15.70;;;;;;;13.90;58.57;102334.47;4975084;28;124133;-70
2022/10/12 09:36:50;;;;;;;26.48;15.35;;;;;;;14.01;58.48;102332.31;4966289;28;119079;-69
2022/10/12 09:39:20;;;;;;;26.90;15.50;;;;;;;14.12;58.17;102330.13;4959935;28;118617;-70
2022/10/12 09:41:53;;;;;;;28.90;16.10;;;;;;;14.25;58.02;102335.03;4965962;28;123724;-70
2022/10/12 09:44:30;;;;;;;30.13;16.40;;;;;;;14.36;58.19;102343.50;4969193;28;122932;-71
2022/10/12 09:47:04;;;;;;;26.17;15.50;;;;;;;14.49;58.19;102339.44;4951977;28;119160;-70
2022/10/12 09:49:43;;;;;;;26.57;16.63;;;;;;;14.64;57.94;102337.16;4942252;28;117376;-70
2022/10/12 09:52:12;;;;;;;29.50;16.58;;;;;;;14.77;57.71;102333.09;4953177;28;125149;-70
2022/10/12 09:54:46;;;;;;;27.15;16.42;;;;;;;14.89;57.46;102337.94;4940666;28;123028;-70
2022/10/12 09:57:27;;;;;;;25.63;16.25;;;;;;;15.01;57.34;102335.72;4949029;28;120823;-70
2022/10/12 09:59:54;;;;;;;30.30;17.17;;;;;;;15.12;57.20;102333.47;4939773;28;119907;-70
2022/10/12 10:02:23;;;;;;;26.13;16.38;;;;;;;15.22;56.56;102324.19;4967546;28;123868;-69
2022/10/12 10:04:52;;;;;;;27.67;16.77;;;;;;;15.29;56.46;102319.44;4971518;28;123948;-70
2022/10/12 10:07:34;;;;;;;28.98;16.33;;;;;;;15.35;56.17;102325.41;4968980;28;119409;-70
2022/10/12 10:10:14;;;;;;;28.77;16.38;;;;;;;15.43;56.10;102324.25;4957474;28;119074;-70
2022/10/12 10:12:52;;;;;;;26.92;16.35;;;;;;;15.50;55.97;102315.00;4968351;28;124701;-70
2022/10/12 10:15:30;;;;;;;37.65;17.00;;;;;;;15.56;55.73;102312.97;4962390;28;122730;-70
2022/10/12 10:18:19;;;;;;;31.02;16.73;;;;;;;15.62;55.80;102311.84;4955482;28;119376;-70
2022/10/12 10:20:53;;;;;;;28.13;16.30;;;;;;;15.70;55.73;102304.34;4959307;28;118108;-70
2022/10/12 10:23:28;;;;;;;27.98;16.52;;;;;;;15.79;55.82;102312.97;4970280;28;124205;-70
2022/10/12 10:26:05;;;;;;;26.05;16.27;;;;;;;15.89;55.82;102308.94;4951532;28;125213;-70
2022/10/12 10:28:34;;;;;;;27.15;16.80;;;;;;;16.02;55.83;102304.78;4973609;28;119557;-70
2022/10/12 10:31:16;;;;;;;29.52;17.35;;;;;;;16.14;55.54;102304.25;4969199;28;119809;-70
2022/10/12 10:33:43;;;;;;;30.67;16.77;;;;;;;16.28;55.66;102305.41;4960768;28;124063;-70
2022/10/12 10:36:25;;;;;;;28.08;15.82;;;;;;;16.41;54.88;102295.03;4962838;28;123594;-70
2022/10/12 10:38:57;;;;;;;29.77;15.60;;;;;;;16.50;54.88;102294.56;4965637;28;119176;-70
2022/10/12 10:41:30;;;;;;;26.45;15.25;;;;;;;16.63;54.62;102294.88;4968408;28;119305;-70
2022/10/12 10:43:57;;;;;;;22.45;14.95;;;;;;;16.75;54.14;102288.94;4968978;28;123848;-70
2022/10/12 10:46:29;;;;;;;26.17;15.25;;;;;;;16.85;54.06;102289.41;4958468;28;123169;-69
2022/10/12 10:49:00;;;;;;;24.55;14.65;;;;;;;16.95;54.11;102295.19;4965103;28;119670;-69
2022/10/12 10:51:58;;;;;;;22.92;14.57;;;;;;;17.08;53.64;102289.16;4977114;28;119681;-70
2022/10/12 10:54:30;;;;;;;22.17;13.45;;;;;;;17.19;53.80;102288.59;4964705;28;124122;-68
2022/10/12 10:57:03;;;;;;;26.38;13.48;;;;;;;17.29;52.94;102289.91;4987786;28;124133;-70
2022/10/12 10:59:39;;;;;;;23.08;13.77;;;;;;;17.36;52.64;102289.59;4970591;28;117506;-70
2022/10/12 11:02:31;;;;;;;23.48;13.18;;;;;;;17.44;52.79;102279.34;4983221;28;118464;-70
2022/10/12 11:05:04;;;;;;;19.23;12.52;;;;;;;17.53;52.70;102270.84;4986141;28;126361;-69
2022/10/12 11:07:40;;;;;;;18.70;12.20;;;;;;;17.64;52.15;102284.53;4946664;28;122585;-70
2022/10/12 11:10:19;;;;;;;25.05;12.60;;;;;;;17.74;52.40;102273.34;4983243;28;119334;-70
2022/10/12 11:12:53;;;;;;;19.67;13.02;;;;;;;17.86;52.27;102272.75;4974173;28;119183;-70
2022/10/12 11:15:31;;;;;;;16.95;10.30;;;;;;;18.00;51.52;102270.19;4960831;28;124180;-70
2022/10/12 11:18:07;;;;;;;17.77;9.93;;;;;;;18.08;51.04;102273.34;4954498;28;124862;-69
2022/10/12 11:21:06;;;;;;;20.58;11.00;;;;;;;18.20;51.28;102270.94;4969191;28;119323;-70
2022/10/12 11:23:52;;;;;;;16.02;9.52;;;;;;;18.29;50.90;102259.72;4965203;28;118913;-70
2022/10/12 11:26:33;;;;;;;17.83;9.57;;;;;;;18.36;50.24;102262.91;4950606;28;123145;-70
2022/10/12 11:29:00;;;;;;;15.25;9.40;;;;;;;18.37;49.73;102257.47;4967335;28;124408;-70
2022/10/12 11:31:31;;;;;;;14.00;8.55;;;;;;;18.38;49.20;102250.25;4969253;28;119067;-70
2022/10/12 11:34:02;;;;;;;17.95;9.35;;;;;;;18.41;49.29;102253.66;4953365;28;119264;-70
2022/10/12 11:36:32;;;;;;;14.85;8.82;;;;;;;18.47;49.08;102250.59;4951831;28;123032;-70